sensor_id;sensor_type;location;lat;lon;timestamp;pressure;altitude;pressure_sealevel;temperature;humidity
9189;BME280;34313;50.780;6.084;2022-11-28T00:01:55;99008.16;;;8.44;94.94
9189;BME280;34313;50.780;6.084;2022-11-28T00:04:21;99018.47;;;8.47;95.29
9189;BME280;34313;50.780;6.084;2022-11-28T00:06:46;99004.06;;;8.38;95.58
9189;BME280;34313;50.780;6.084;2022-11-28T00:09:15;98994.56;;;8.36;96.01
9189;BME280;34313;50.780;6.084;2022-11-28T00:11:42;99007.19;;;8.45;95.37
9189;BME280;34313;50.780;6.084;2022-11-28T00:14:09;98987.63;;;8.50;95.18
9189;BME280;34313;50.780;6.084;2022-11-28T00:16:35;98985.09;;;8.49;94.68
9189;BME280;34313;50.780;6.084;2022-11-28T00:19:03;98977.13;;;8.50;94.63
9189;BME280;34313;50.780;6.084;2022-11-28T00:21:29;98964.25;;;8.46;94.35
9189;BME280;34313;50.780;6.084;2022-11-28T00:23:56;98972.63;;;8.52;94.29
9189;BME280;34313;50.780;6.084;2022-11-28T00:26:27;98967.97;;;8.58;93.93
9189;BME280;34313;50.780;6.084;2022-11-28T00:28:54;98964.56;;;8.56;94.09
9189;BME280;34313;50.780;6.084;2022-11-28T00:31:23;98965.97;;;8.47;94.60
9189;BME280;34313;50.780;6.084;2022-11-28T00:33:50;98974.09;;;8.42;94.69
9189;BME280;34313;50.780;6.084;2022-11-28T00:36:16;98961.63;;;8.46;94.54
9189;BME280;34313;50.780;6.084;2022-11-28T00:38:42;98955.75;;;8.41;94.63
9189;BME280;34313;50.780;6.084;2022-11-28T00:41:13;98959.16;;;8.43;94.81
9189;BME280;34313;50.780;6.084;2022-11-28T00:43:39;98958.47;;;8.39;94.83
9189;BME280;34313;50.780;6.084;2022-11-28T00:46:06;98952.22;;;8.42;94.45
9189;BME280;34313;50.780;6.084;2022-11-28T00:48:33;98949.75;;;8.39;94.08
9189;BME280;34313;50.780;6.084;2022-11-28T00:51:12;98952.47;;;8.37;94.22
9189;BME280;34313;50.780;6.084;2022-11-28T00:53:39;98954.19;;;8.38;93.92
9189;BME280;34313;50.780;6.084;2022-11-28T00:56:07;98950.59;;;8.39;93.67
9189;BME280;34313;50.780;6.084;2022-11-28T00:58:36;98943.94;;;8.33;93.31
9189;BME280;34313;50.780;6.084;2022-11-28T01:01:16;98947.13;;;8.39;93.25
9189;BME280;34313;50.780;6.084;2022-11-28T01:03:42;98948.25;;;8.35;93.44
9189;BME280;34313;50.780;6.084;2022-11-28T01:06:09;98947.84;;;8.42;92.66
9189;BME280;34313;50.780;6.084;2022-11-28T01:08:35;98954.78;;;8.43;92.76
9189;BME280;34313;50.780;6.084;2022-11-28T01:11:00;98951.06;;;8.31;93.08
9189;BME280;34313;50.780;6.084;2022-11-28T01:13:26;98959.69;;;8.33;93.13
9189;BME280;34313;50.780;6.084;2022-11-28T01:15:51;98951.81;;;8.33;93.08
9189;BME280;34313;50.780;6.084;2022-11-28T01:18:17;98952.47;;;8.37;92.64
9189;BME280;34313;50.780;6.084;2022-11-28T01:20:42;98960.03;;;8.43;92.02
9189;BME280;34313;50.780;6.084;2022-11-28T01:23:08;98956.47;;;8.44;91.95
9189;BME280;34313;50.780;6.084;2022-11-28T01:25:34;98944.09;;;8.46;92.33
9189;BME280;34313;50.780;6.084;2022-11-28T01:27:59;98940.44;;;8.49;91.77
9189;BME280;34313;50.780;6.084;2022-11-28T01:30:25;98941.47;;;8.46;92.18
9189;BME280;34313;50.780;6.084;2022-11-28T01:32:51;98952.44;;;8.53;91.36
9189;BME280;34313;50.780;6.084;2022-11-28T01:35:16;98950.78;;;8.52;91.48
9189;BME280;34313;50.780;6.084;2022-11-28T01:37:41;98952.38;;;8.55;91.20
9189;BME280;34313;50.780;6.084;2022-11-28T01:40:11;98949.66;;;8.56;91.38
9189;BME280;34313;50.780;6.084;2022-11-28T01:42:36;98945.81;;;8.62;91.17
9189;BME280;34313;50.780;6.084;2022-11-28T01:45:29;98946.38;;;8.67;90.28
9189;BME280;34313;50.780;6.084;2022-11-28T01:47:57;98933.06;;;8.56;90.85
9189;BME280;34313;50.780;6.084;2022-11-28T01:50:25;98928.63;;;8.56;91.18
9189;BME280;34313;50.780;6.084;2022-11-28T01:52:54;98926.84;;;8.57;90.86
9189;BME280;34313;50.780;6.084;2022-11-28T01:55:25;98929.94;;;8.49;91.28
9189;BME280;34313;50.780;6.084;2022-11-28T01:57:53;98926.19;;;8.53;91.42
9189;BME280;34313;50.780;6.084;2022-11-28T02:00:20;98917.81;;;8.46;91.50
9189;BME280;34313;50.780;6.084;2022-11-28T02:02:55;98921.03;;;8.51;91.26
9189;BME280;34313;50.780;6.084;2022-11-28T02:05:23;98910.97;;;8.44;91.61
9189;BME280;34313;50.780;6.084;2022-11-28T02:07:49;98906.47;;;8.46;91.62
9189;BME280;34313;50.780;6.084;2022-11-28T02:10:30;98906.59;;;8.59;90.45
9189;BME280;34313;50.780;6.084;2022-11-28T02:21:18;98921.16;;;8.64;90.01
9189;BME280;34313;50.780;6.084;2022-11-28T02:30:18;98918.53;;;8.64;89.93
9189;BME280;34313;50.780;6.084;2022-11-28T02:33:08;98913.44;;;8.61;90.80
9189;BME280;34313;50.780;6.084;2022-11-28T02:38:38;98911.41;;;8.66;90.52
9189;BME280;34313;50.780;6.084;2022-11-28T02:41:14;98902.56;;;8.67;90.76
9189;BME280;34313;50.780;6.084;2022-11-28T02:44:37;98902.56;;;8.67;90.45
9189;BME280;34313;50.780;6.084;2022-11-28T02:47:25;98897.22;;;8.55;91.28
9189;BME280;34313;50.780;6.084;2022-11-28T02:50:00;98889.50;;;8.51;90.73
9189;BME280;34313;50.780;6.084;2022-11-28T02:52:35;98903.00;;;8.45;90.92
9189;BME280;34313;50.780;6.084;2022-11-28T02:55:03;98882.31;;;8.39;90.46
9189;BME280;34313;50.780;6.084;2022-11-28T02:57:40;98899.53;;;8.45;91.31
9189;BME280;34313;50.780;6.084;2022-11-28T03:02:53;98882.31;;;8.25;92.72
9189;BME280;34313;50.780;6.084;2022-11-28T03:11:15;98890.06;;;8.12;94.06
9189;BME280;34313;50.780;6.084;2022-11-28T03:16:31;98895.72;;;8.04;94.91
9189;BME280;34313;50.780;6.084;2022-11-28T03:19:19;98905.56;;;8.01;94.92
9189;BME280;34313;50.780;6.084;2022-11-28T03:21:52;98897.31;;;7.92;95.61
9189;BME280;34313;50.780;6.084;2022-11-28T03:24:30;98901.50;;;7.95;96.54
9189;BME280;34313;50.780;6.084;2022-11-28T03:27:15;98900.75;;;7.93;96.61
9189;BME280;34313;50.780;6.084;2022-11-28T03:29:51;98903.03;;;7.83;97.56
9189;BME280;34313;50.780;6.084;2022-11-28T03:32:28;98898.91;;;7.79;97.82
9189;BME280;34313;50.780;6.084;2022-11-28T03:35:16;98912.78;;;7.81;98.25
9189;BME280;34313;50.780;6.084;2022-11-28T03:37:48;98913.97;;;7.75;98.80
9189;BME280;34313;50.780;6.084;2022-11-28T03:40:18;98914.06;;;7.74;99.21
9189;BME280;34313;50.780;6.084;2022-11-28T03:42:50;98913.41;;;7.70;99.88
9189;BME280;34313;50.780;6.084;2022-11-28T03:45:24;98916.59;;;7.75;99.50
9189;BME280;34313;50.780;6.084;2022-11-28T03:47:59;98922.84;;;7.73;99.46
9189;BME280;34313;50.780;6.084;2022-11-28T03:50:33;98933.09;;;7.78;99.24
9189;BME280;34313;50.780;6.084;2022-11-28T03:53:04;98937.16;;;7.83;99.27
9189;BME280;34313;50.780;6.084;2022-11-28T03:55:44;98930.63;;;7.90;99.06
9189;BME280;34313;50.780;6.084;2022-11-28T03:58:48;98928.13;;;7.89;99.38
9189;BME280;34313;50.780;6.084;2022-11-28T04:01:33;98929.28;;;7.83;99.52
9189;BME280;34313;50.780;6.084;2022-11-28T04:06:55;98924.53;;;7.90;96.82
9189;BME280;34313;50.780;6.084;2022-11-28T04:09:39;98928.50;;;7.97;94.62
9189;BME280;34313;50.780;6.084;2022-11-28T04:12:13;98924.47;;;7.91;94.68
9189;BME280;34313;50.780;6.084;2022-11-28T04:14:45;98922.59;;;7.93;94.42
9189;BME280;34313;50.780;6.084;2022-11-28T04:17:17;98917.34;;;7.93;93.50
9189;BME280;34313;50.780;6.084;2022-11-28T04:19:57;98900.94;;;7.90;93.12
9189;BME280;34313;50.780;6.084;2022-11-28T04:22:32;98899.13;;;7.90;91.00
9189;BME280;34313;50.780;6.084;2022-11-28T04:25:03;98905.16;;;7.92;90.82
9189;BME280;34313;50.780;6.084;2022-11-28T04:27:34;98910.66;;;7.88;90.58
9189;BME280;34313;50.780;6.084;2022-11-28T04:30:04;98906.25;;;7.88;90.60
9189;BME280;34313;50.780;6.084;2022-11-28T04:32:32;98909.84;;;7.87;90.67
9189;BME280;34313;50.780;6.084;2022-11-28T04:35:11;98922.28;;;7.84;90.81
9189;BME280;34313;50.780;6.084;2022-11-28T04:37:39;98925.56;;;7.87;89.31
9189;BME280;34313;50.780;6.084;2022-11-28T04:40:10;98916.00;;;7.86;89.32
9189;BME280;34313;50.780;6.084;2022-11-28T04:42:41;98923.03;;;7.86;89.80
9189;BME280;34313;50.780;6.084;2022-11-28T04:45:25;98931.16;;;7.81;90.71
9189;BME280;34313;50.780;6.084;2022-11-28T04:47:52;98924.06;;;7.67;90.88
9189;BME280;34313;50.780;6.084;2022-11-28T04:50:20;98926.84;;;7.64;91.00
9189;BME280;34313;50.780;6.084;2022-11-28T04:52:56;98928.53;;;7.65;91.74
9189;BME280;34313;50.780;6.084;2022-11-28T04:55:28;98918.28;;;7.61;91.33
9189;BME280;34313;50.780;6.084;2022-11-28T04:58:03;98927.34;;;7.55;90.81
9189;BME280;34313;50.780;6.084;2022-11-28T05:00:33;98927.28;;;7.56;91.32
9189;BME280;34313;50.780;6.084;2022-11-28T05:03:01;98925.09;;;7.49;91.54
9189;BME280;34313;50.780;6.084;2022-11-28T05:05:27;98921.19;;;7.56;91.10
9189;BME280;34313;50.780;6.084;2022-11-28T05:07:56;98910.03;;;7.52;91.12
9189;BME280;34313;50.780;6.084;2022-11-28T05:10:22;98895.38;;;7.48;91.29
9189;BME280;34313;50.780;6.084;2022-11-28T05:12:47;98884.72;;;7.51;90.10
9189;BME280;34313;50.780;6.084;2022-11-28T05:15:13;98886.16;;;7.57;89.87
9189;BME280;34313;50.780;6.084;2022-11-28T05:17:44;98899.19;;;7.58;90.15
9189;BME280;34313;50.780;6.084;2022-11-28T05:20:10;98906.66;;;7.50;90.48
9189;BME280;34313;50.780;6.084;2022-11-28T05:22:36;98909.66;;;7.58;90.55
9189;BME280;34313;50.780;6.084;2022-11-28T05:25:01;98910.41;;;7.61;90.42
9189;BME280;34313;50.780;6.084;2022-11-28T05:27:28;98902.38;;;7.64;90.01
9189;BME280;34313;50.780;6.084;2022-11-28T05:29:53;98911.00;;;7.66;90.14
9189;BME280;34313;50.780;6.084;2022-11-28T05:32:18;98909.75;;;7.73;90.50
9189;BME280;34313;50.780;6.084;2022-11-28T05:34:44;98911.78;;;7.68;90.66
9189;BME280;34313;50.780;6.084;2022-11-28T05:37:09;98900.34;;;7.69;90.56
9189;BME280;34313;50.780;6.084;2022-11-28T05:39:35;98898.19;;;7.61;90.49
9189;BME280;34313;50.780;6.084;2022-11-28T05:42:00;98905.44;;;7.72;90.44
9189;BME280;34313;50.780;6.084;2022-11-28T05:44:26;98903.81;;;7.69;90.11
9189;BME280;34313;50.780;6.084;2022-11-28T05:46:51;98894.19;;;7.70;90.40
9189;BME280;34313;50.780;6.084;2022-11-28T05:49:17;98902.22;;;7.67;90.65
9189;BME280;34313;50.780;6.084;2022-11-28T05:51:45;98897.16;;;7.64;90.53
9189;BME280;34313;50.780;6.084;2022-11-28T05:54:10;98911.38;;;7.75;90.24
9189;BME280;34313;50.780;6.084;2022-11-28T05:56:36;98906.94;;;7.76;90.14
9189;BME280;34313;50.780;6.084;2022-11-28T05:59:01;98917.78;;;7.86;89.73
9189;BME280;34313;50.780;6.084;2022-11-28T06:01:28;98919.47;;;7.87;89.69
9189;BME280;34313;50.780;6.084;2022-11-28T06:03:54;98908.50;;;7.80;89.91
9189;BME280;34313;50.780;6.084;2022-11-28T06:06:26;98916.59;;;7.91;89.95
9189;BME280;34313;50.780;6.084;2022-11-28T06:08:52;98911.50;;;7.88;90.01
9189;BME280;34313;50.780;6.084;2022-11-28T06:11:19;98915.66;;;7.92;90.23
9189;BME280;34313;50.780;6.084;2022-11-28T06:13:46;98908.25;;;7.99;89.63
9189;BME280;34313;50.780;6.084;2022-11-28T06:16:14;98912.13;;;8.08;89.52
9189;BME280;34313;50.780;6.084;2022-11-28T06:18:40;98900.56;;;8.12;88.68
9189;BME280;34313;50.780;6.084;2022-11-28T06:21:08;98908.44;;;8.12;89.27
9189;BME280;34313;50.780;6.084;2022-11-28T06:23:34;98916.34;;;8.26;88.50
9189;BME280;34313;50.780;6.084;2022-11-28T06:26:10;98919.97;;;8.24;88.57
9189;BME280;34313;50.780;6.084;2022-11-28T06:28:36;98926.72;;;8.13;88.80
9189;BME280;34313;50.780;6.084;2022-11-28T06:31:02;98919.41;;;8.19;88.38
9189;BME280;34313;50.780;6.084;2022-11-28T06:33:28;98922.88;;;8.19;88.72
9189;BME280;34313;50.780;6.084;2022-11-28T06:36:01;98925.34;;;8.22;88.19
9189;BME280;34313;50.780;6.084;2022-11-28T06:38:27;98926.09;;;8.24;87.68
9189;BME280;34313;50.780;6.084;2022-11-28T06:41:01;98923.25;;;8.27;87.74
9189;BME280;34313;50.780;6.084;2022-11-28T06:43:28;98925.81;;;8.29;87.62
9189;BME280;34313;50.780;6.084;2022-11-28T06:45:53;98923.47;;;8.24;88.27
9189;BME280;34313;50.780;6.084;2022-11-28T06:48:19;98927.19;;;8.20;88.91
9189;BME280;34313;50.780;6.084;2022-11-28T06:50:45;98930.22;;;8.28;88.83
9189;BME280;34313;50.780;6.084;2022-11-28T06:53:10;98926.94;;;8.25;88.50
9189;BME280;34313;50.780;6.084;2022-11-28T06:55:36;98922.59;;;8.24;88.97
9189;BME280;34313;50.780;6.084;2022-11-28T06:58:01;98925.88;;;8.27;88.39
9189;BME280;34313;50.780;6.084;2022-11-28T07:00:27;98918.88;;;8.28;88.30
9189;BME280;34313;50.780;6.084;2022-11-28T07:02:52;98927.69;;;8.27;88.33
9189;BME280;34313;50.780;6.084;2022-11-28T07:05:18;98922.31;;;8.14;89.28
9189;BME280;34313;50.780;6.084;2022-11-28T07:07:45;98937.88;;;8.17;89.53
9189;BME280;34313;50.780;6.084;2022-11-28T07:10:11;98929.72;;;8.22;89.51
9189;BME280;34313;50.780;6.084;2022-11-28T07:12:36;98940.91;;;8.25;89.44
9189;BME280;34313;50.780;6.084;2022-11-28T07:15:05;98929.81;;;8.20;89.74
9189;BME280;34313;50.780;6.084;2022-11-28T07:17:30;98945.06;;;8.29;89.84
9189;BME280;34313;50.780;6.084;2022-11-28T07:19:56;98939.72;;;8.31;89.84
9189;BME280;34313;50.780;6.084;2022-11-28T07:22:21;98947.69;;;8.29;89.47
9189;BME280;34313;50.780;6.084;2022-11-28T07:24:46;98945.72;;;8.33;89.89
9189;BME280;34313;50.780;6.084;2022-11-28T07:27:12;98943.59;;;8.24;90.13
9189;BME280;34313;50.780;6.084;2022-11-28T07:29:38;98955.09;;;8.37;89.98
9189;BME280;34313;50.780;6.084;2022-11-28T07:32:04;98937.47;;;8.39;89.27
9189;BME280;34313;50.780;6.084;2022-11-28T07:34:30;98951.47;;;8.40;89.72
9189;BME280;34313;50.780;6.084;2022-11-28T07:36:56;98955.34;;;8.32;89.92
9189;BME280;34313;50.780;6.084;2022-11-28T07:39:21;98944.44;;;8.40;89.93
9189;BME280;34313;50.780;6.084;2022-11-28T07:41:47;98954.84;;;8.42;90.16
9189;BME280;34313;50.780;6.084;2022-11-28T07:44:12;98951.81;;;8.33;90.19
9189;BME280;34313;50.780;6.084;2022-11-28T07:46:42;98949.69;;;8.40;90.33
9189;BME280;34313;50.780;6.084;2022-11-28T07:49:08;98954.94;;;8.40;90.76
9189;BME280;34313;50.780;6.084;2022-11-28T07:51:34;98957.63;;;8.39;90.90
9189;BME280;34313;50.780;6.084;2022-11-28T07:54:01;98959.09;;;8.44;90.72
9189;BME280;34313;50.780;6.084;2022-11-28T07:56:29;98957.28;;;8.45;91.17
9189;BME280;34313;50.780;6.084;2022-11-28T07:58:54;98958.38;;;8.41;91.55
9189;BME280;34313;50.780;6.084;2022-11-28T08:01:23;98957.13;;;8.32;92.32
9189;BME280;34313;50.780;6.084;2022-11-28T08:03:50;98963.41;;;8.45;92.96
9189;BME280;34313;50.780;6.084;2022-11-28T08:06:17;98963.72;;;8.39;93.35
9189;BME280;34313;50.780;6.084;2022-11-28T08:08:43;98966.28;;;8.41;93.29
9189;BME280;34313;50.780;6.084;2022-11-28T08:11:12;98976.94;;;8.38;93.71
9189;BME280;34313;50.780;6.084;2022-11-28T08:13:38;98974.00;;;8.28;94.60
9189;BME280;34313;50.780;6.084;2022-11-28T08:16:06;98978.50;;;8.26;95.21
9189;BME280;34313;50.780;6.084;2022-11-28T08:18:33;98982.72;;;8.28;95.83
9189;BME280;34313;50.780;6.084;2022-11-28T08:21:09;98966.44;;;8.38;95.57
9189;BME280;34313;50.780;6.084;2022-11-28T08:23:38;98974.22;;;8.39;95.78
9189;BME280;34313;50.780;6.084;2022-11-28T08:26:07;98972.47;;;8.24;96.68
9189;BME280;34313;50.780;6.084;2022-11-28T08:28:33;98965.84;;;8.32;96.25
9189;BME280;34313;50.780;6.084;2022-11-28T08:31:29;98969.53;;;8.30;96.71
9189;BME280;34313;50.780;6.084;2022-11-28T08:33:56;98960.44;;;8.36;97.14
9189;BME280;34313;50.780;6.084;2022-11-28T08:36:22;98957.97;;;8.32;97.57
9189;BME280;34313;50.780;6.084;2022-11-28T08:38:48;98981.44;;;8.36;97.96
9189;BME280;34313;50.780;6.084;2022-11-28T08:41:18;98972.47;;;8.40;98.77
9189;BME280;34313;50.780;6.084;2022-11-28T08:43:44;98973.63;;;8.50;100.00
9189;BME280;34313;50.780;6.084;2022-11-28T08:46:12;98971.00;;;8.50;100.00
9189;BME280;34313;50.780;6.084;2022-11-28T08:48:39;98967.28;;;8.54;98.29
9189;BME280;34313;50.780;6.084;2022-11-28T08:51:06;98981.25;;;8.55;98.38
9189;BME280;34313;50.780;6.084;2022-11-28T08:53:31;98981.25;;;8.55;98.38
9189;BME280;34313;50.780;6.084;2022-11-28T08:55:58;98981.00;;;8.59;98.31
9189;BME280;34313;50.780;6.084;2022-11-28T08:58:23;98975.91;;;8.56;98.19
9189;BME280;34313;50.780;6.084;2022-11-28T09:00:48;98980.91;;;8.61;98.17
9189;BME280;34313;50.780;6.084;2022-11-28T09:03:15;98959.09;;;8.44;98.28
9189;BME280;34313;50.780;6.084;2022-11-28T09:05:42;98983.81;;;8.56;98.96
9189;BME280;34313;50.780;6.084;2022-11-28T09:08:10;98984.97;;;8.66;98.47
9189;BME280;34313;50.780;6.084;2022-11-28T09:10:37;98982.50;;;8.63;98.43
9189;BME280;34313;50.780;6.084;2022-11-28T09:13:03;98967.78;;;8.61;98.50
9189;BME280;34313;50.780;6.084;2022-11-28T09:15:28;98980.72;;;8.64;97.75
9189;BME280;34313;50.780;6.084;2022-11-28T09:17:54;98980.94;;;8.75;97.92
9189;BME280;34313;50.780;6.084;2022-11-28T09:20:19;98981.44;;;8.82;97.33
9189;BME280;34313;50.780;6.084;2022-11-28T09:22:45;98979.63;;;8.82;97.01
9189;BME280;34313;50.780;6.084;2022-11-28T09:25:13;98993.34;;;8.87;97.45
9189;BME280;34313;50.780;6.084;2022-11-28T09:27:38;98982.75;;;8.89;97.17
9189;BME280;34313;50.780;6.084;2022-11-28T09:30:05;98993.84;;;8.94;96.97
9189;BME280;34313;50.780;6.084;2022-11-28T09:32:30;98996.00;;;9.02;96.96
9189;BME280;34313;50.780;6.084;2022-11-28T09:34:56;98992.31;;;9.04;96.68
9189;BME280;34313;50.780;6.084;2022-11-28T09:37:21;98994.28;;;9.01;96.34
9189;BME280;34313;50.780;6.084;2022-11-28T09:39:46;98984.44;;;9.04;96.27
9189;BME280;34313;50.780;6.084;2022-11-28T09:44:52;99000.34;;;9.17;96.73
9189;BME280;34313;50.780;6.084;2022-11-28T09:47:22;99003.25;;;9.27;96.03
9189;BME280;34313;50.780;6.084;2022-11-28T09:49:49;98995.44;;;9.25;95.91
9189;BME280;34313;50.780;6.084;2022-11-28T09:52:25;99002.69;;;9.36;95.41
9189;BME280;34313;50.780;6.084;2022-11-28T09:55:04;98994.91;;;9.35;95.29
9189;BME280;34313;50.780;6.084;2022-11-28T09:57:39;98993.94;;;9.36;95.16
9189;BME280;34313;50.780;6.084;2022-11-28T10:00:11;98994.03;;;9.34;95.17
9189;BME280;34313;50.780;6.084;2022-11-28T10:03:03;99000.50;;;9.43;95.18
9189;BME280;34313;50.780;6.084;2022-11-28T10:05:35;98990.28;;;9.53;94.36
9189;BME280;34313;50.780;6.084;2022-11-28T10:14:19;99007.66;;;9.55;94.49
9189;BME280;34313;50.780;6.084;2022-11-28T10:16:48;99005.47;;;9.62;94.20
9189;BME280;34313;50.780;6.084;2022-11-28T10:19:18;99001.19;;;9.61;94.35
9189;BME280;34313;50.780;6.084;2022-11-28T10:21:50;99001.09;;;9.62;95.05
9189;BME280;34313;50.780;6.084;2022-11-28T10:24:21;99005.47;;;9.62;94.79
9189;BME280;34313;50.780;6.084;2022-11-28T10:26:50;99005.94;;;9.69;94.90
9189;BME280;34313;50.780;6.084;2022-11-28T10:29:29;99002.63;;;9.79;94.95
9189;BME280;34313;50.780;6.084;2022-11-28T10:31:58;99007.72;;;9.82;94.92
9189;BME280;34313;50.780;6.084;2022-11-28T10:37:30;99004.41;;;9.93;95.26
9189;BME280;34313;50.780;6.084;2022-11-28T10:40:11;99001.00;;;10.06;94.42
9189;BME280;34313;50.780;6.084;2022-11-28T10:43:00;98991.41;;;10.05;94.14
9189;BME280;34313;50.780;6.084;2022-11-28T10:46:02;99007.81;;;10.22;93.76
9189;BME280;34313;50.780;6.084;2022-11-28T10:48:49;98999.34;;;10.17;92.76
9189;BME280;34313;50.780;6.084;2022-11-28T11:02:45;99007.69;;;9.97;94.22
9189;BME280;34313;50.780;6.084;2022-11-28T11:05:18;99009.28;;;9.99;94.73
9189;BME280;34313;50.780;6.084;2022-11-28T11:08:22;99004.22;;;9.96;94.82
9189;BME280;34313;50.780;6.084;2022-11-28T11:13:27;99002.13;;;10.01;94.99
9189;BME280;34313;50.780;6.084;2022-11-28T11:16:13;98999.03;;;9.95;95.16
9189;BME280;34313;50.780;6.084;2022-11-28T11:21:25;99000.75;;;9.96;95.35
9189;BME280;34313;50.780;6.084;2022-11-28T11:26:38;99001.88;;;9.92;96.90
9189;BME280;34313;50.780;6.084;2022-11-28T11:29:04;98998.31;;;9.93;96.67
9189;BME280;34313;50.780;6.084;2022-11-28T11:31:36;99007.13;;;9.92;96.47
9189;BME280;34313;50.780;6.084;2022-11-28T11:34:12;99006.38;;;9.90;96.69
9189;BME280;34313;50.780;6.084;2022-11-28T11:36:39;98999.22;;;9.92;95.88
9189;BME280;34313;50.780;6.084;2022-11-28T11:41:38;99004.22;;;9.96;96.50
9189;BME280;34313;50.780;6.084;2022-11-28T11:49:47;99003.09;;;10.28;95.12
9189;BME280;34313;50.780;6.084;2022-11-28T11:52:25;99006.84;;;10.38;94.43
9189;BME280;34313;50.780;6.084;2022-11-28T11:54:59;98999.69;;;10.40;94.10
9189;BME280;34313;50.780;6.084;2022-11-28T11:57:31;99000.88;;;10.49;93.48
9189;BME280;34313;50.780;6.084;2022-11-28T12:00:03;98992.44;;;10.44;92.54
9189;BME280;34313;50.780;6.084;2022-11-28T12:02:36;99002.16;;;10.56;93.05
9189;BME280;34313;50.780;6.084;2022-11-28T12:05:24;98995.63;;;10.62;92.94
9189;BME280;34313;50.780;6.084;2022-11-28T12:08:10;99007.53;;;10.67;91.70
9189;BME280;34313;50.780;6.084;2022-11-28T12:10:45;99004.38;;;10.62;92.32
9189;BME280;34313;50.780;6.084;2022-11-28T12:13:21;99003.44;;;10.63;91.93
9189;BME280;34313;50.780;6.084;2022-11-28T12:21:59;99024.53;;;10.36;93.25
9189;BME280;34313;50.780;6.084;2022-11-28T12:41:44;99007.25;;;10.17;94.02
9189;BME280;34313;50.780;6.084;2022-11-28T12:55:26;99008.56;;;10.25;93.85
9189;BME280;34313;50.780;6.084;2022-11-28T12:58:32;99010.25;;;10.26;93.63
9189;BME280;34313;50.780;6.084;2022-11-28T13:06:40;99012.22;;;10.36;93.60
9189;BME280;34313;50.780;6.084;2022-11-28T13:12:02;99007.88;;;10.35;93.48
9189;BME280;34313;50.780;6.084;2022-11-28T13:23:07;99002.41;;;10.38;92.66
9189;BME280;34313;50.780;6.084;2022-11-28T13:25:53;99002.22;;;10.42;92.73
9189;BME280;34313;50.780;6.084;2022-11-28T13:28:26;98997.97;;;10.39;92.74
9189;BME280;34313;50.780;6.084;2022-11-28T13:31:05;99006.41;;;10.31;92.99
9189;BME280;34313;50.780;6.084;2022-11-28T13:36:19;99010.44;;;10.22;93.60
9189;BME280;34313;50.780;6.084;2022-11-28T13:39:05;99007.06;;;10.20;93.54
9189;BME280;34313;50.780;6.084;2022-11-28T13:41:39;98992.38;;;10.16;93.80
9189;BME280;34313;50.780;6.084;2022-11-28T13:44:15;99006.84;;;10.23;92.84
9189;BME280;34313;50.780;6.084;2022-11-28T13:46:44;99015.28;;;10.29;92.68
9189;BME280;34313;50.780;6.084;2022-11-28T13:49:23;99020.47;;;10.30;92.52
9189;BME280;34313;50.780;6.084;2022-11-28T13:54:50;99001.28;;;10.28;91.44
9189;BME280;34313;50.780;6.084;2022-11-28T13:59:49;99019.63;;;10.30;92.30
9189;BME280;34313;50.780;6.084;2022-11-28T14:04:52;99023.72;;;10.21;91.58
9189;BME280;34313;50.780;6.084;2022-11-28T14:07:28;99019.38;;;10.20;91.55
9189;BME280;34313;50.780;6.084;2022-11-28T14:10:37;99026.63;;;10.16;92.15
9189;BME280;34313;50.780;6.084;2022-11-28T14:21:20;99025.44;;;10.08;93.42
9189;BME280;34313;50.780;6.084;2022-11-28T14:23:53;99028.28;;;10.05;93.03
9189;BME280;34313;50.780;6.084;2022-11-28T14:28:57;99034.00;;;9.97;93.20
9189;BME280;34313;50.780;6.084;2022-11-28T14:31:38;99033.53;;;9.90;93.27
9189;BME280;34313;50.780;6.084;2022-11-28T14:34:40;99041.09;;;9.82;93.77
9189;BME280;34313;50.780;6.084;2022-11-28T14:39:45;99044.50;;;9.70;94.19
9189;BME280;34313;50.780;6.084;2022-11-28T14:44:56;99050.50;;;9.43;95.96
9189;BME280;34313;50.780;6.084;2022-11-28T14:47:31;99057.16;;;9.34;96.63
9189;BME280;34313;50.780;6.084;2022-11-28T14:52:40;99061.75;;;9.16;97.75
9189;BME280;34313;50.780;6.084;2022-11-28T14:57:37;99058.34;;;9.00;98.75
9189;BME280;34313;50.780;6.084;2022-11-28T15:05:44;99076.97;;;8.81;100.00
9189;BME280;34313;50.780;6.084;2022-11-28T15:16:28;99079.88;;;8.60;100.00
9189;BME280;34313;50.780;6.084;2022-11-28T15:18:58;99082.28;;;8.49;100.00
9189;BME280;34313;50.780;6.084;2022-11-28T15:21:28;99085.41;;;8.40;100.00
9189;BME280;34313;50.780;6.084;2022-11-28T15:23:53;99088.09;;;8.38;100.00
9189;BME280;34313;50.780;6.084;2022-11-28T15:26:32;99083.34;;;8.29;100.00
9189;BME280;34313;50.780;6.084;2022-11-28T15:29:18;99084.63;;;8.22;100.00
9189;BME280;34313;50.780;6.084;2022-11-28T15:31:45;99069.91;;;8.03;100.00
9189;BME280;34313;50.780;6.084;2022-11-28T15:34:19;99082.41;;;7.98;100.00
9189;BME280;34313;50.780;6.084;2022-11-28T15:36:45;99080.78;;;7.95;100.00
9189;BME280;34313;50.780;6.084;2022-11-28T15:39:32;99073.34;;;7.88;100.00
9189;BME280;34313;50.780;6.084;2022-11-28T15:42:05;99076.53;;;7.77;100.00
9189;BME280;34313;50.780;6.084;2022-11-28T15:44:33;99072.47;;;7.71;100.00
9189;BME280;34313;50.780;6.084;2022-11-28T15:46:58;99077.97;;;7.67;100.00
9189;BME280;34313;50.780;6.084;2022-11-28T15:49:31;99079.81;;;7.65;100.00
9189;BME280;34313;50.780;6.084;2022-11-28T15:52:02;99081.00;;;7.59;100.00
9189;BME280;34313;50.780;6.084;2022-11-28T15:54:39;99078.63;;;7.54;100.00
9189;BME280;34313;50.780;6.084;2022-11-28T15:57:06;99092.09;;;7.47;100.00
9189;BME280;34313;50.780;6.084;2022-11-28T15:59:40;99092.72;;;7.52;100.00
9189;BME280;34313;50.780;6.084;2022-11-28T16:02:22;99092.91;;;7.49;100.00
9189;BME280;34313;50.780;6.084;2022-11-28T16:04:59;99099.06;;;7.48;100.00
9189;BME280;34313;50.780;6.084;2022-11-28T16:07:27;99087.28;;;7.39;100.00
9189;BME280;34313;50.780;6.084;2022-11-28T16:09:57;99089.28;;;7.34;100.00
9189;BME280;34313;50.780;6.084;2022-11-28T16:12:24;99096.22;;;7.35;100.00
9189;BME280;34313;50.780;6.084;2022-11-28T16:14:50;99101.28;;;7.38;100.00
9189;BME280;34313;50.780;6.084;2022-11-28T16:17:30;99109.41;;;7.51;100.00
9189;BME280;34313;50.780;6.084;2022-11-28T16:19:57;99110.31;;;7.50;100.00
9189;BME280;34313;50.780;6.084;2022-11-28T16:22:30;99111.25;;;7.49;100.00
9189;BME280;34313;50.780;6.084;2022-11-28T16:25:10;99114.50;;;7.36;100.00
9189;BME280;34313;50.780;6.084;2022-11-28T16:27:38;99117.81;;;7.40;100.00
9189;BME280;34313;50.780;6.084;2022-11-28T16:32:49;99123.38;;;7.16;100.00